Time;durP1;ratioP1;P1;durP2;ratioP2;P2;SDS_P1;SDS_P2;PMS_P1;PMS_P2;Temp;Humidity;BMP_temperature;BMP_pressure;BME280_temperature;BME280_humidity;BME280_pressure;Samples;Min_cycle;Max_cycle;Signal;HPM_P1;HPM_P2
2021/06/08 00:01:18;;;;;;;6.72;4.00;;;22.10;78.70;;;;;;12080518;28;20113;-75
2021/06/08 00:07:05;;;;;;;6.07;3.50;;;22.00;80.00;;;;;;12086690;28;20518;-79
2021/06/08 00:12:52;;;;;;;5.00;3.53;;;22.00;79.60;;;;;;12088509;28;20060;-79
2021/06/08 00:18:39;;;;;;;5.00;4.20;;;21.80;79.70;;;;;;12083027;28;20040;-79
2021/06/08 00:24:25;;;;;;;7.65;4.13;;;21.80;80.20;;;;;;12087193;28;20392;-79
2021/06/08 00:30:14;;;;;;;6.18;3.30;;;21.80;81.10;;;;;;12085741;28;20055;-79
2021/06/08 00:36:01;;;;;;;7.68;3.88;;;21.70;80.30;;;;;;12088172;28;20050;-78
2021/06/08 00:41:47;;;;;;;6.95;4.22;;;21.70;80.40;;;;;;12088101;28;20047;-80
2021/06/08 00:47:35;;;;;;;7.63;4.90;;;21.70;80.80;;;;;;12085731;28;20067;-79
2021/06/08 00:53:22;;;;;;;9.38;4.75;;;21.50;82.30;;;;;;12085121;28;20071;-79
2021/06/08 00:59:09;;;;;;;5.63;4.20;;;21.30;83.00;;;;;;12080326;28;20437;-75
2021/06/08 01:05:01;;;;;;;5.38;3.95;;;21.20;82.90;;;;;;12081272;28;20085;-74
2021/06/08 01:10:47;;;;;;;6.97;4.50;;;21.30;82.90;;;;;;12080609;28;20407;-74
2021/06/08 01:16:34;;;;;;;5.65;3.92;;;21.30;83.10;;;;;;12078504;28;20536;-79
2021/06/08 01:22:22;;;;;;;9.15;4.20;;;21.30;83.00;;;;;;12084133;28;20059;-79
2021/06/08 01:28:09;;;;;;;9.85;5.28;;;21.30;82.70;;;;;;12078092;28;20559;-79
2021/06/08 01:33:56;;;;;;;10.45;4.22;;;21.00;84.10;;;;;;12082976;28;20051;-80
2021/06/08 01:39:47;;;;;;;5.47;4.60;;;21.00;84.30;;;;;;12082877;28;20495;-78
2021/06/08 01:45:35;;;;;;;7.60;4.15;;;21.00;84.10;;;;;;12082894;28;20052;-80
2021/06/08 01:51:29;;;;;;;7.88;4.70;;;21.00;84.60;;;;;;12078412;28;20044;-79
2021/06/08 01:57:20;;;;;;;6.05;4.57;;;20.90;84.50;;;;;;12081479;28;20399;-79
2021/06/08 02:03:13;;;;;;;7.93;4.80;;;20.90;84.80;;;;;;12076872;28;20640;-75
2021/06/08 02:09:05;;;;;;;11.10;5.28;;;21.00;84.60;;;;;;12076292;28;20063;-75
2021/06/08 09:35:32;;;;;;;10.73;6.30;;;22.30;92.30;;;;;;12147696;27;20357;-78
2021/06/08 09:41:21;;;;;;;10.35;5.95;;;22.80;91.00;;;;;;12062549;28;20041;-77
2021/06/08 09:47:26;;;;;;;7.10;4.75;;;23.10;90.10;;;;;;12108495;28;20044;-79
2021/06/08 09:53:22;;;;;;;10.98;4.88;;;23.40;87.90;;;;;;12121434;28;20351;-80
2021/06/08 09:59:08;;;;;;;6.95;4.35;;;23.60;85.70;;;;;;12121020;28;20045;-79
2021/06/08 10:05:15;;;;;;;5.95;3.88;;;23.80;84.60;;;;;;12131489;28;20534;-79
2021/06/08 10:11:03;;;;;;;5.40;4.78;;;24.00;83.30;;;;;;12108375;28;20787;-80
2021/06/08 10:17:03;;;;;;;6.30;4.38;;;24.20;81.50;;;;;;12110978;28;20498;-79
2021/06/08 10:22:50;;;;;;;7.13;4.07;;;24.20;79.60;;;;;;12107079;28;20045;-79
2021/06/08 10:28:38;;;;;;;8.52;4.43;;;24.30;80.10;;;;;;12105940;28;20058;-79
2021/06/08 10:34:28;;;;;;;6.40;3.85;;;24.20;79.80;;;;;;12106851;27;20036;-79
2021/06/08 10:40:16;;;;;;;8.35;3.78;;;24.00;79.80;;;;;;12102585;28;20044;-79
2021/06/08 10:46:04;;;;;;;8.60;3.88;;;23.90;78.30;;;;;;12076973;28;20049;-80
2021/06/08 10:52:04;;;;;;;8.45;4.47;;;23.80;78.30;;;;;;12064850;28;20507;-79
2021/06/08 10:57:51;;;;;;;5.88;4.30;;;24.10;78.00;;;;;;12065279;28;20478;-80
2021/06/08 11:09:52;;;;;;;5.05;3.20;;;24.30;76.20;;;;;;12149270;27;20119;-79
2021/06/08 11:21:56;;;;;;;9.57;3.53;;;25.30;71.00;;;;;;12152817;27;20586;-77
2021/06/08 11:27:56;;;;;;;4.30;3.47;;;24.80;70.60;;;;;;12109634;27;20050;-79
2021/06/08 11:33:44;;;;;;;8.57;3.20;;;24.90;71.00;;;;;;12118686;28;20055;-78
2021/06/08 11:39:30;;;;;;;7.28;3.60;;;25.10;70.80;;;;;;12114987;28;20119;-78
2021/06/08 11:45:28;;;;;;;7.57;3.35;;;25.30;69.40;;;;;;12148503;27;20063;-80
2021/06/08 11:51:34;;;;;;;5.03;2.97;;;25.70;67.90;;;;;;12129422;28;20084;-79
2021/06/08 11:57:36;;;;;;;6.72;3.28;;;25.50;68.10;;;;;;12170214;27;20126;-81
2021/06/08 12:03:28;;;;;;;3.90;3.08;;;25.70;66.00;;;;;;12174251;27;20055;-79
2021/06/08 12:09:17;;;;;;;5.40;2.63;;;26.20;65.60;;;;;;12168535;27;20046;-79
2021/06/08 12:15:05;;;;;;;3.17;2.45;;;26.10;63.70;;;;;;12176135;27;20050;-80
2021/06/08 12:20:53;;;;;;;5.03;2.75;;;26.20;65.20;;;;;;12137807;27;20070;-79
2021/06/08 12:26:49;;;;;;;6.22;2.70;;;26.40;62.30;;;;;;12135817;27;20047;-81
2021/06/08 12:32:38;;;;;;;3.58;2.35;;;26.20;65.50;;;;;;12140507;27;20055;-80
2021/06/08 12:38:28;;;;;;;3.35;2.47;;;25.70;64.30;;;;;;12134361;27;20055;-78
2021/06/08 12:44:26;;;;;;;3.67;2.72;;;25.90;65.60;;;;;;12136820;27;20426;-78
2021/06/08 12:50:19;;;;;;;4.85;2.67;;;26.50;62.60;;;;;;12135690;27;20052;-77
2021/06/08 12:56:11;;;;;;;6.38;2.97;;;27.00;62.20;;;;;;12138666;27;20071;-77
2021/06/08 13:02:00;;;;;;;5.18;2.63;;;26.50;61.70;;;;;;12129732;27;20051;-78
2021/06/08 13:07:49;;;;;;;5.85;2.30;;;26.10;63.50;;;;;;12123212;27;20055;-78
2021/06/08 13:13:36;;;;;;;7.40;2.60;;;25.70;64.80;;;;;;12128194;27;20056;-79
2021/06/08 13:19:25;;;;;;;5.65;2.60;;;26.10;63.00;;;;;;12127334;27;20391;-79
2021/06/08 13:25:12;;;;;;;4.80;2.60;;;26.50;61.00;;;;;;12126261;27;20044;-78
2021/06/08 13:31:08;;;;;;;5.53;2.33;;;26.80;60.00;;;;;;12122773;27;20055;-78
2021/06/08 13:36:59;;;;;;;3.45;2.53;;;26.70;61.30;;;;;;12126516;27;20043;-78
2021/06/08 13:42:57;;;;;;;3.92;2.60;;;26.60;61.30;;;;;;12132124;27;20936;-78
2021/06/08 13:48:58;;;;;;;4.70;2.50;;;26.30;61.60;;;;;;12127823;27;20066;-78
2021/06/08 13:54:45;;;;;;;3.70;2.42;;;26.80;59.90;;;;;;12127376;27;20132;-79
2021/06/08 14:00:31;;;;;;;3.17;2.20;;;27.10;60.00;;;;;;12128555;27;20410;-79
2021/06/08 14:06:19;;;;;;;2.80;2.22;;;27.30;58.00;;;;;;12117935;27;20047;-80
2021/06/08 14:12:07;;;;;;;2.60;2.25;;;27.60;57.40;;;;;;12128904;27;20039;-79
2021/06/08 14:17:53;;;;;;;6.15;2.30;;;27.80;59.50;;;;;;12125821;27;20082;-78
2021/06/08 14:23:54;;;;;;;5.30;2.45;;;27.60;58.50;;;;;;12127624;27;20052;-79
2021/06/08 14:29:42;;;;;;;8.02;2.70;;;27.10;58.90;;;;;;12128939;27;20495;-79
2021/06/08 14:35:28;;;;;;;3.08;2.47;;;26.70;58.60;;;;;;12120258;27;20071;-79
2021/06/08 14:41:16;;;;;;;2.72;2.30;;;27.10;59.00;;;;;;12128257;27;20039;-79
2021/06/08 14:47:04;;;;;;;7.05;2.10;;;27.70;58.30;;;;;;12125953;28;20044;-79
2021/06/08 14:52:50;;;;;;;3.17;2.30;;;28.40;58.90;;;;;;12132764;27;20055;-78
2021/06/08 14:58:38;;;;;;;7.60;2.35;;;28.90;57.00;;;;;;12129707;28;20460;-76
2021/06/08 15:04:25;;;;;;;3.05;2.10;;;29.50;55.80;;;;;;12111769;27;20056;-76
2021/06/08 15:10:11;;;;;;;3.83;2.75;;;29.80;54.80;;;;;;12120451;27;20055;-75
2021/06/08 15:15:59;;;;;;;2.15;1.95;;;30.00;55.30;;;;;;12119588;28;20490;-76
2021/06/08 15:21:48;;;;;;;5.75;2.00;;;29.90;52.30;;;;;;12121106;27;20143;-75
2021/06/08 15:27:36;;;;;;;4.18;2.17;;;29.70;53.10;;;;;;12119871;28;20051;-76
2021/06/08 15:33:24;;;;;;;1.88;1.70;;;29.20;53.10;;;;;;12113002;27;20059;-78
2021/06/08 15:39:10;;;;;;;3.85;2.15;;;29.30;53.70;;;;;;12120065;27;20052;-75
2021/06/08 15:44:57;;;;;;;3.90;2.10;;;30.60;52.60;;;;;;12118516;27;20063;-75
2021/06/08 15:50:44;;;;;;;4.28;1.83;;;32.00;49.60;;;;;;12119857;27;20051;-76
2021/06/08 15:56:31;;;;;;;3.72;2.00;;;31.40;49.20;;;;;;12124643;27;20113;-76
2021/06/08 16:02:17;;;;;;;4.53;2.53;;;29.80;52.20;;;;;;12127151;27;20096;-75
2021/06/08 16:08:06;;;;;;;4.70;2.50;;;28.80;54.50;;;;;;12125377;27;20056;-75
2021/06/08 16:13:52;;;;;;;6.65;2.35;;;28.60;55.50;;;;;;12123174;28;20506;-76
2021/06/08 16:19:39;;;;;;;2.88;2.00;;;28.80;55.20;;;;;;12117982;27;20514;-76
2021/06/08 16:25:27;;;;;;;4.82;2.40;;;28.40;56.40;;;;;;12115324;27;20067;-76
2021/06/08 16:31:14;;;;;;;2.90;2.20;;;28.40;57.70;;;;;;12122392;27;20064;-76
2021/06/08 16:37:00;;;;;;;2.60;1.77;;;31.40;50.80;;;;;;12123912;28;20055;-79
2021/06/08 16:42:48;;;;;;;5.90;1.83;;;31.30;49.50;;;;;;12126241;27;20047;-80
2021/06/08 16:48:37;;;;;;;5.50;2.20;;;31.40;53.20;;;;;;12129698;27;20058;-78
2021/06/08 16:54:26;;;;;;;2.25;2.00;;;32.10;50.60;;;;;;12124408;27;20843;-78
2021/06/08 17:00:15;;;;;;;2.63;1.90;;;31.00;50.50;;;;;;12125810;27;20075;-79
2021/06/08 17:06:01;;;;;;;6.03;3.25;;;30.00;51.30;;;;;;12120070;27;20502;-79
2021/06/08 17:11:48;;;;;;;2.03;1.73;;;30.10;53.80;;;;;;12114622;27;20051;-78
2021/06/08 17:17:39;;;;;;;2.03;1.83;;;33.00;50.10;;;;;;12122660;27;20104;-78
2021/06/08 17:23:25;;;;;;;3.50;2.20;;;34.30;45.30;;;;;;12127328;28;20066;-79
2021/06/08 17:29:12;;;;;;;2.40;2.20;;;32.70;47.00;;;;;;12127641;27;20044;-77
2021/06/08 17:35:00;;;;;;;5.55;1.65;;;33.20;46.60;;;;;;12096559;27;20047;-78
2021/06/08 17:40:47;;;;;;;4.47;2.63;;;34.40;44.60;;;;;;12120973;27;20052;-77
2021/06/08 17:46:34;;;;;;;2.03;1.55;;;32.90;46.40;;;;;;12122312;27;20181;-78
2021/06/08 17:52:21;;;;;;;3.70;2.13;;;33.60;45.10;;;;;;12146677;27;20043;-78
2021/06/08 17:58:08;;;;;;;3.15;1.70;;;32.90;46.50;;;;;;12131551;27;20063;-78
2021/06/08 18:03:54;;;;;;;1.23;1.10;;;33.30;45.90;;;;;;12127549;27;20174;-78
2021/06/08 18:09:42;;;;;;;3.35;1.92;;;35.40;43.30;;;;;;12119479;27;20077;-78
2021/06/08 18:15:30;;;;;;;1.65;1.40;;;37.30;41.40;;;;;;12123796;27;20045;-79
2021/06/08 18:21:18;;;;;;;2.55;1.40;;;37.90;39.30;;;;;;12111124;27;20048;-78
2021/06/08 18:27:07;;;;;;;3.40;1.20;;;38.10;39.00;;;;;;12101668;28;20044;-78
2021/06/08 18:32:54;;;;;;;1.63;1.40;;;38.30;38.50;;;;;;12089349;27;20055;-77
2021/06/08 18:38:41;;;;;;;1.77;1.50;;;38.00;39.00;;;;;;12091967;27;20068;-77
2021/06/08 18:44:29;;;;;;;1.40;1.30;;;37.50;38.70;;;;;;12090801;27;20415;-78
2021/06/08 18:50:15;;;;;;;2.67;1.60;;;37.10;40.50;;;;;;12096495;28;20048;-77
2021/06/08 18:56:01;;;;;;;4.07;1.70;;;37.10;40.50;;;;;;12094495;28;20048;-77
2021/06/08 19:01:50;;;;;;;2.05;1.52;;;36.70;41.20;;;;;;12102271;27;20052;-77
2021/06/08 19:07:38;;;;;;;3.92;1.65;;;35.90;42.70;;;;;;12100849;27;20059;-78
2021/06/08 19:13:24;;;;;;;1.42;1.20;;;34.90;42.20;;;;;;12093886;27;20067;-78
2021/06/08 19:19:12;;;;;;;2.53;1.42;;;32.90;45.40;;;;;;12096895;27;20048;-77
2021/06/08 19:24:58;;;;;;;1.65;1.50;;;30.90;48.80;;;;;;12088626;27;20043;-78
2021/06/08 19:30:45;;;;;;;1.80;1.48;;;29.50;52.20;;;;;;12102941;27;20059;-79
2021/06/08 19:36:33;;;;;;;2.78;1.30;;;28.60;54.90;;;;;;12108950;27;20062;-80
2021/06/08 19:42:22;;;;;;;6.63;1.60;;;27.90;55.80;;;;;;12105849;27;20064;-79
2021/06/08 19:48:11;;;;;;;2.92;1.95;;;27.40;57.70;;;;;;12111987;27;20052;-79
2021/06/08 19:53:58;;;;;;;10.10;3.08;;;26.90;58.80;;;;;;12115958;27;20502;-78
2021/06/08 19:59:48;;;;;;;5.43;2.95;;;26.70;61.80;;;;;;12122214;27;20067;-79
2021/06/08 20:05:34;;;;;;;7.72;2.42;;;26.60;62.90;;;;;;12122936;27;22313;-79
2021/06/08 20:11:22;;;;;;;3.85;2.13;;;26.40;65.00;;;;;;12121801;27;20052;-80
2021/06/08 20:17:09;;;;;;;6.07;2.40;;;26.30;65.70;;;;;;12115074;27;20048;-79
2021/06/08 20:22:55;;;;;;;3.72;2.55;;;26.20;66.10;;;;;;12112596;27;20055;-81
2021/06/08 20:28:43;;;;;;;3.95;3.00;;;26.00;65.50;;;;;;12105787;27;20111;-79
2021/06/08 20:34:29;;;;;;;4.95;2.53;;;25.90;65.80;;;;;;12103981;27;20063;-79
2021/06/08 20:40:17;;;;;;;6.10;2.67;;;25.60;66.20;;;;;;12101241;27;20052;-78
2021/06/08 20:46:07;;;;;;;6.90;2.50;;;25.60;67.20;;;;;;12102826;27;20158;-79
2021/06/08 20:51:54;;;;;;;7.95;3.10;;;25.50;68.50;;;;;;12109324;27;20048;-79
2021/06/08 20:57:40;;;;;;;13.07;3.13;;;25.40;69.40;;;;;;12103600;27;20051;-80
2021/06/08 21:03:28;;;;;;;5.90;2.60;;;25.40;69.00;;;;;;12108286;27;20051;-80
2021/06/08 21:09:14;;;;;;;9.70;3.22;;;25.30;69.50;;;;;;12097268;27;20044;-80
2021/06/08 21:15:03;;;;;;;5.38;2.83;;;25.20;68.50;;;;;;12107871;27;20105;-81
2021/06/08 21:20:51;;;;;;;7.93;3.08;;;25.10;69.20;;;;;;12102620;27;20047;-78
2021/06/08 21:26:38;;;;;;;13.52;4.05;;;24.90;70.00;;;;;;12102768;27;20043;-80
2021/06/08 21:32:27;;;;;;;11.85;3.53;;;24.80;70.60;;;;;;12109977;27;20068;-79
2021/06/08 21:38:17;;;;;;;12.00;3.65;;;24.70;70.80;;;;;;12099496;27;20056;-79
2021/06/08 21:44:05;;;;;;;7.63;3.00;;;24.60;71.10;;;;;;12108578;27;20055;-80
2021/06/08 21:49:53;;;;;;;14.23;3.58;;;24.40;71.80;;;;;;12101534;28;20044;-79
2021/06/08 21:55:42;;;;;;;10.65;3.50;;;24.30;72.40;;;;;;12104042;27;20110;-77
2021/06/08 22:01:28;;;;;;;6.13;2.88;;;24.20;72.80;;;;;;12091164;27;20051;-77
2021/06/08 22:07:14;;;;;;;6.25;3.20;;;24.20;73.70;;;;;;12099994;27;20058;-76
2021/06/08 22:13:02;;;;;;;10.85;3.10;;;24.10;74.10;;;;;;12108228;28;20063;-77
2021/06/08 22:18:49;;;;;;;6.28;3.13;;;24.00;74.70;;;;;;12105014;27;20613;-76
2021/06/08 22:24:35;;;;;;;4.07;2.80;;;23.90;75.30;;;;;;12093917;27;20064;-76
2021/06/08 22:30:23;;;;;;;9.27;3.50;;;23.90;75.40;;;;;;12089806;27;20066;-76
2021/06/08 22:36:10;;;;;;;7.90;3.70;;;23.90;75.50;;;;;;12092295;27;20043;-78
2021/06/08 22:41:56;;;;;;;9.60;3.65;;;23.80;75.70;;;;;;12098104;27;20048;-78
2021/06/08 22:47:45;;;;;;;7.10;4.28;;;23.80;75.60;;;;;;12097181;27;20051;-79
2021/06/08 22:53:31;;;;;;;10.55;3.92;;;23.70;75.70;;;;;;12101222;27;26424;-79
2021/06/08 22:59:18;;;;;;;8.93;4.43;;;23.60;75.80;;;;;;12093596;28;20056;-78
2021/06/08 23:05:08;;;;;;;11.82;5.45;;;23.60;76.00;;;;;;12088690;27;22028;-79
2021/06/08 23:10:55;;;;;;;8.57;4.07;;;23.60;75.80;;;;;;12099840;27;20043;-78
2021/06/08 23:16:42;;;;;;;6.80;4.25;;;23.50;75.60;;;;;;12093727;27;20056;-79
2021/06/08 23:22:30;;;;;;;9.70;4.13;;;23.40;76.10;;;;;;12104486;28;20048;-78
2021/06/08 23:28:16;;;;;;;7.25;3.90;;;23.30;76.80;;;;;;12097336;27;20066;-79
2021/06/08 23:34:03;;;;;;;7.32;3.72;;;23.30;77.30;;;;;;12102239;27;20083;-79
2021/06/08 23:39:51;;;;;;;6.70;3.97;;;23.30;77.40;;;;;;12107050;27;20044;-79
2021/06/08 23:45:37;;;;;;;6.93;3.97;;;23.20;77.90;;;;;;12106972;27;20056;-78
2021/06/08 23:51:24;;;;;;;8.30;3.50;;;23.20;77.90;;;;;;12105208;27;20064;-78
2021/06/08 23:57:13;;;;;;;5.13;3.40;;;23.10;77.30;;;;;;12107550;27;20082;-79
